createdAt,value
2022-10-18T00:00:06.196Z,16.24
2022-10-18T00:02:34.948Z,16.15
2022-10-18T00:05:01.569Z,15.97
2022-10-18T00:07:28.362Z,15.91
2022-10-18T00:09:55.349Z,16.00
2022-10-18T00:12:21.959Z,15.94
2022-10-18T00:14:50.996Z,15.94
2022-10-18T00:17:17.768Z,15.98
2022-10-18T00:19:44.612Z,16.04
2022-10-18T00:22:11.165Z,16.13
2022-10-18T00:24:37.746Z,16.19
2022-10-18T00:27:04.501Z,15.87
2022-10-18T00:29:31.338Z,15.57
2022-10-18T00:31:57.953Z,15.70
2022-10-18T00:34:24.611Z,15.45
2022-10-18T00:36:51.281Z,15.36
2022-10-18T00:39:20.320Z,15.40
2022-10-18T00:41:48.260Z,15.59
2022-10-18T00:44:15.014Z,15.85
2022-10-18T00:46:44.345Z,15.77
2022-10-18T00:49:53.494Z,15.75
2022-10-18T00:52:29.145Z,15.91
2022-10-18T00:54:57.518Z,15.55
2022-10-18T00:57:24.804Z,15.44
2022-10-18T00:59:52.989Z,15.36
2022-10-18T01:02:20.131Z,15.22
2022-10-18T01:04:48.062Z,15.24
2022-10-18T01:07:31.841Z,15.44
2022-10-18T01:10:20.448Z,15.53
2022-10-18T01:13:08.813Z,15.52
2022-10-18T01:15:46.168Z,15.55
2022-10-18T01:18:37.748Z,15.55
2022-10-18T01:21:04.413Z,15.51
2022-10-18T01:23:55.727Z,15.60
2022-10-18T01:26:36.410Z,15.56
2022-10-18T01:29:12.105Z,15.67
2022-10-18T01:32:19.086Z,15.63
2022-10-18T01:34:50.061Z,15.61
2022-10-18T01:37:19.552Z,15.69
2022-10-18T01:39:47.951Z,15.57
2022-10-18T01:42:19.685Z,15.20
2022-10-18T01:44:48.262Z,15.20
2022-10-18T01:47:16.727Z,15.15
2022-10-18T01:49:43.305Z,15.20
2022-10-18T01:52:14.128Z,15.30
2022-10-18T01:54:44.698Z,15.35
2022-10-18T01:57:24.762Z,15.45
2022-10-18T02:00:06.234Z,15.46
2022-10-18T02:02:56.957Z,15.34
2022-10-18T02:05:44.837Z,15.38
2022-10-18T02:08:24.074Z,15.38
2022-10-18T02:10:55.625Z,15.44
2022-10-18T02:13:23.360Z,15.18
2022-10-18T02:15:54.876Z,15.16
2022-10-18T02:18:27.751Z,15.33
2022-10-18T02:20:55.183Z,15.51
2022-10-18T02:23:24.699Z,15.77
2022-10-18T02:25:52.770Z,15.70
2022-10-18T02:28:19.502Z,15.69
2022-10-18T02:30:53.159Z,15.83
2022-10-18T02:33:32.051Z,15.91
2022-10-18T02:36:06.293Z,15.85
2022-10-18T02:38:33.553Z,15.97
2022-10-18T02:41:00.363Z,16.03
2022-10-18T02:43:26.988Z,16.07
2022-10-18T02:45:53.662Z,16.00
2022-10-18T02:48:20.334Z,16.17
2022-10-18T02:50:46.987Z,16.19
2022-10-18T02:53:13.574Z,16.21
2022-10-18T02:55:40.204Z,16.24
2022-10-18T02:58:06.793Z,15.85
2022-10-18T03:00:33.328Z,15.67
2022-10-18T03:03:00.387Z,15.73
2022-10-18T03:05:26.906Z,15.74
2022-10-18T03:07:53.453Z,15.87
2022-10-18T03:10:19.999Z,15.98
2022-10-18T03:12:46.584Z,15.85
2022-10-18T03:15:13.184Z,15.88
2022-10-18T03:17:39.735Z,16.07
2022-10-18T03:20:06.841Z,16.21
2022-10-18T03:22:33.464Z,15.96
2022-10-18T03:25:00.109Z,16.22
2022-10-18T03:27:26.857Z,16.37
2022-10-18T03:29:53.396Z,16.20
2022-10-18T03:32:19.988Z,16.39
2022-10-18T03:34:46.581Z,16.38
2022-10-18T03:37:13.124Z,16.22
2022-10-18T03:39:39.669Z,16.33
2022-10-18T03:42:06.181Z,16.46
2022-10-18T03:44:32.842Z,16.45
2022-10-18T03:46:59.446Z,16.48
2022-10-18T03:49:26.020Z,16.22
2022-10-18T03:51:52.601Z,15.82
2022-10-18T03:54:19.223Z,15.90
2022-10-18T03:56:45.741Z,15.97
2022-10-18T03:59:12.284Z,16.16
2022-10-18T04:01:38.934Z,16.31
2022-10-18T04:04:05.558Z,16.44
2022-10-18T04:06:32.270Z,16.17
2022-10-18T04:08:59.331Z,16.21
2022-10-18T04:11:26.827Z,15.95
2022-10-18T04:13:53.365Z,15.20
2022-10-18T04:16:20.020Z,15.36
2022-10-18T04:18:46.641Z,15.42
2022-10-18T04:21:13.375Z,15.37
2022-10-18T04:23:40.031Z,15.75
2022-10-18T04:26:07.358Z,15.57
2022-10-18T04:28:35.123Z,15.39
2022-10-18T04:31:01.815Z,15.39
2022-10-18T04:33:28.372Z,15.42
2022-10-18T04:35:54.979Z,15.58
2022-10-18T04:38:21.835Z,15.87
2022-10-18T04:40:48.652Z,15.63
2022-10-18T04:43:16.151Z,15.32
2022-10-18T04:45:48.271Z,15.55
2022-10-18T04:48:15.588Z,15.54
2022-10-18T04:50:42.140Z,15.39
2022-10-18T04:53:14.383Z,15.64
2022-10-18T04:55:44.543Z,16.05
2022-10-18T04:58:11.471Z,16.05
2022-10-18T05:00:40.009Z,15.74
2022-10-18T05:03:07.974Z,15.66
2022-10-18T05:05:49.849Z,15.80
2022-10-18T05:08:21.944Z,15.74
2022-10-18T05:10:48.888Z,15.97
2022-10-18T05:13:15.818Z,15.96
2022-10-18T05:15:42.422Z,15.71
2022-10-18T05:18:08.974Z,15.42
2022-10-18T05:20:35.545Z,15.07
2022-10-18T05:23:02.080Z,15.02
2022-10-18T05:25:28.651Z,15.56
2022-10-18T05:27:55.242Z,15.57
2022-10-18T05:30:22.006Z,15.74
2022-10-18T05:32:48.542Z,16.06
2022-10-18T05:35:15.187Z,16.16
2022-10-18T05:37:41.721Z,15.74
2022-10-18T05:40:08.828Z,15.72
2022-10-18T05:42:35.377Z,15.94
2022-10-18T05:45:02.017Z,16.08
2022-10-18T05:47:28.580Z,15.73
2022-10-18T05:49:55.184Z,15.68
2022-10-18T05:52:21.801Z,15.90
2022-10-18T05:54:48.321Z,15.84
2022-10-18T05:57:14.863Z,15.92
2022-10-18T05:59:41.490Z,15.95
2022-10-18T06:02:10.371Z,15.97
2022-10-18T06:04:36.938Z,15.92
2022-10-18T06:07:04.291Z,15.87
2022-10-18T06:09:30.807Z,15.68
2022-10-18T06:11:57.655Z,15.77
2022-10-18T06:14:24.182Z,15.80
2022-10-18T06:16:50.816Z,15.48
2022-10-18T06:19:17.433Z,15.61
2022-10-18T06:21:44.034Z,15.57
2022-10-18T06:24:10.570Z,15.60
2022-10-18T06:26:37.144Z,15.50
2022-10-18T06:29:03.747Z,15.63
2022-10-18T06:31:30.410Z,15.76
2022-10-18T06:34:01.025Z,15.61
2022-10-18T06:36:27.574Z,15.58
2022-10-18T06:38:54.200Z,15.61
2022-10-18T06:41:21.394Z,15.42
2022-10-18T06:43:53.303Z,15.43
2022-10-18T06:46:19.993Z,15.48
2022-10-18T06:48:47.040Z,15.54
2022-10-18T06:51:15.086Z,15.51
2022-10-18T06:53:44.352Z,15.63
2022-10-18T06:56:20.060Z,15.78
2022-10-18T06:58:46.665Z,15.93
2022-10-18T07:01:18.383Z,15.91
2022-10-18T07:03:46.697Z,15.97
2022-10-18T07:06:16.175Z,15.83
2022-10-18T07:08:43.255Z,16.00
2022-10-18T07:11:19.258Z,16.11
2022-10-18T07:13:45.888Z,16.10
2022-10-18T07:16:17.403Z,16.05
2022-10-18T07:18:50.272Z,16.32
2022-10-18T07:21:19.493Z,16.19
2022-10-18T07:23:46.698Z,16.14
2022-10-18T07:26:31.362Z,16.21
2022-10-18T07:29:01.522Z,16.24
2022-10-18T07:31:29.283Z,16.22
2022-10-18T07:33:55.868Z,16.19
2022-10-18T07:36:22.526Z,16.20
2022-10-18T07:38:49.933Z,16.28
2022-10-18T07:41:16.834Z,16.27
2022-10-18T07:43:46.406Z,16.37
2022-10-18T07:46:13.515Z,16.37
2022-10-18T07:48:40.768Z,16.52
2022-10-18T07:51:07.624Z,16.54
2022-10-18T07:53:34.621Z,16.57
2022-10-18T07:56:05.853Z,16.59
2022-10-18T07:58:35.387Z,16.64
2022-10-18T08:01:03.625Z,16.75
2022-10-18T08:03:30.233Z,16.71
2022-10-18T08:05:56.765Z,16.79
2022-10-18T08:08:24.406Z,16.84
2022-10-18T08:10:51.677Z,17.05
2022-10-18T08:13:18.622Z,17.15
2022-10-18T08:15:45.261Z,17.23
2022-10-18T08:18:11.859Z,17.51
2022-10-18T08:20:43.998Z,17.62
2022-10-18T08:23:11.086Z,17.48
2022-10-18T08:25:37.674Z,17.61
2022-10-18T08:28:04.386Z,17.69
2022-10-18T08:30:31.011Z,17.78
2022-10-18T08:32:57.637Z,17.79
2022-10-18T08:35:24.448Z,17.75
2022-10-18T08:37:51.218Z,17.83
2022-10-18T08:40:17.931Z,17.91
2022-10-18T08:43:09.488Z,17.97
2022-10-18T08:45:43.135Z,18.18
2022-10-18T08:48:27.229Z,18.26
2022-10-18T08:50:56.285Z,18.31
2022-10-18T08:53:34.045Z,18.32
2022-10-18T08:56:14.432Z,18.51
2022-10-18T08:58:44.570Z,18.58
2022-10-18T09:01:39.055Z,18.65
2022-10-18T09:04:23.881Z,18.86
2022-10-18T09:07:05.623Z,19.13
2022-10-18T09:10:03.051Z,19.21
2022-10-18T09:13:17.436Z,19.20
2022-10-18T09:16:02.667Z,19.21
2022-10-18T09:18:44.360Z,19.07
2022-10-18T09:21:51.049Z,19.14
2022-10-18T09:24:31.346Z,19.19
2022-10-18T09:27:04.695Z,19.16
2022-10-18T09:29:58.530Z,19.16
2022-10-18T09:33:02.938Z,19.26
2022-10-18T09:35:42.845Z,19.34
2022-10-18T09:38:13.172Z,19.48
2022-10-18T09:40:51.323Z,19.26
2022-10-18T09:43:23.715Z,19.49
2022-10-18T09:45:53.198Z,19.61
2022-10-18T09:48:27.260Z,19.53
2022-10-18T09:51:22.146Z,19.38
2022-10-18T09:53:48.616Z,19.47
2022-10-18T09:56:16.702Z,19.50
2022-10-18T09:58:46.416Z,19.48
2022-10-18T10:01:16.637Z,19.55
2022-10-18T10:03:43.228Z,19.59
2022-10-18T10:06:12.772Z,19.85
2022-10-18T10:08:44.163Z,19.79
2022-10-18T10:11:46.482Z,19.81
2022-10-18T10:14:25.951Z,19.97
2022-10-18T10:17:03.314Z,20.14
2022-10-18T10:20:21.277Z,20.19
2022-10-18T10:22:49.831Z,19.88
2022-10-18T10:25:43.041Z,20.10
2022-10-18T10:28:16.492Z,19.75
2022-10-18T10:30:43.149Z,19.65
2022-10-18T10:33:32.255Z,19.77
2022-10-18T10:36:01.436Z,19.75
2022-10-18T10:38:30.235Z,19.92
2022-10-18T10:40:57.596Z,19.81
2022-10-18T10:43:38.027Z,19.81
2022-10-18T10:46:33.329Z,19.93
2022-10-18T10:49:27.893Z,20.04
2022-10-18T10:52:08.230Z,20.13
2022-10-18T10:54:50.322Z,20.04
2022-10-18T10:57:25.896Z,20.03
2022-10-18T10:59:55.324Z,20.06
2022-10-18T11:02:35.559Z,20.18
2022-10-18T11:05:24.057Z,20.22
2022-10-18T11:07:54.692Z,20.22
2022-10-18T11:10:29.297Z,19.98
2022-10-18T11:13:04.708Z,20.30
2022-10-18T11:15:46.191Z,20.27
2022-10-18T11:18:27.073Z,20.34
2022-10-18T11:21:00.019Z,20.17
2022-10-18T11:23:32.726Z,19.98
2022-10-18T11:26:11.013Z,20.08
2022-10-18T11:28:55.831Z,20.27
2022-10-18T11:31:34.606Z,20.12
2022-10-18T11:34:31.617Z,20.35
2022-10-18T11:37:36.068Z,20.37
2022-10-18T11:40:26.739Z,20.48
2022-10-18T11:43:18.474Z,20.41
2022-10-18T11:46:20.528Z,20.51
2022-10-18T11:48:56.197Z,20.77
2022-10-18T11:52:03.283Z,20.66
2022-10-18T11:55:05.055Z,20.73
2022-10-18T11:57:50.609Z,20.78
2022-10-18T12:00:39.867Z,20.75
2022-10-18T12:03:37.156Z,20.85
2022-10-18T12:06:10.356Z,20.90
2022-10-18T12:08:44.331Z,20.63
2022-10-18T12:11:26.772Z,20.95
2022-10-18T12:14:03.057Z,21.27
2022-10-18T12:16:52.278Z,20.94
2022-10-18T12:19:26.691Z,20.88
2022-10-18T12:22:02.592Z,21.09
2022-10-18T12:24:32.007Z,21.14
2022-10-18T12:27:01.395Z,21.30
2022-10-18T12:29:31.643Z,21.17
2022-10-18T12:32:16.492Z,21.03
2022-10-18T12:34:50.786Z,21.43
2022-10-18T12:37:42.475Z,21.53
2022-10-18T12:40:29.352Z,21.27
2022-10-18T12:42:56.302Z,21.24
2022-10-18T12:45:33.402Z,21.48
2022-10-18T12:48:06.768Z,21.39
2022-10-18T12:50:40.419Z,21.89
2022-10-18T12:53:09.726Z,22.41
2022-10-18T12:58:15.731Z,21.76
2022-10-18T13:00:42.239Z,22.17
2022-10-18T13:03:11.905Z,21.72
2022-10-18T13:05:55.948Z,21.71
2022-10-18T13:08:29.179Z,22.12
2022-10-18T13:11:01.854Z,22.28
2022-10-18T13:13:47.329Z,21.98
2022-10-18T13:16:40.255Z,21.84
2022-10-18T13:19:39.561Z,21.58
2022-10-18T13:22:34.063Z,21.92
2022-10-18T13:25:47.286Z,22.20
2022-10-18T13:28:42.875Z,22.01
2022-10-18T13:31:18.601Z,22.36
2022-10-18T13:33:45.344Z,22.52
2022-10-18T13:36:22.655Z,22.35
2022-10-18T13:38:57.576Z,22.13
2022-10-18T13:41:28.303Z,22.07
2022-10-18T13:44:02.380Z,21.79
2022-10-18T13:46:34.936Z,22.08
2022-10-18T13:49:35.421Z,22.17
2022-10-18T13:52:08.096Z,22.43
2022-10-18T13:54:34.569Z,22.23
2022-10-18T13:57:16.346Z,22.06
2022-10-18T14:00:11.947Z,22.09
2022-10-18T14:02:56.914Z,22.09
2022-10-18T14:06:04.118Z,22.19
2022-10-18T14:08:46.126Z,22.34
2022-10-18T14:11:34.117Z,22.33
2022-10-18T14:14:19.094Z,22.22
2022-10-18T14:17:17.890Z,22.24
2022-10-18T14:19:52.216Z,22.10
2022-10-18T14:22:25.441Z,21.96
2022-10-18T14:24:57.527Z,22.19
2022-10-18T14:27:26.985Z,22.19
2022-10-18T14:30:09.452Z,21.96
2022-10-18T14:32:36.197Z,22.30
2022-10-18T14:35:33.762Z,22.25
2022-10-18T14:37:52.847Z,22.19
2022-10-18T14:40:38.940Z,22.17
2022-10-18T14:43:09.647Z,22.19
2022-10-18T14:45:36.302Z,22.51
2022-10-18T14:48:14.863Z,22.51
2022-10-18T14:50:42.852Z,22.29
2022-10-18T14:53:16.283Z,22.30
2022-10-18T14:55:43.229Z,22.33
2022-10-18T14:58:16.073Z,22.59
2022-10-18T15:00:45.130Z,22.21
2022-10-18T15:03:16.895Z,22.63
2022-10-18T15:05:59.699Z,22.21
2022-10-18T15:08:35.569Z,22.33
2022-10-18T15:11:02.459Z,22.78
2022-10-18T15:13:31.401Z,23.25
2022-10-18T15:15:58.378Z,23.40
2022-10-18T15:18:27.070Z,23.34
2022-10-18T15:21:22.620Z,23.37
2022-10-18T15:23:50.969Z,23.60
2022-10-18T15:26:27.185Z,23.23
2022-10-18T15:28:56.528Z,23.46
2022-10-18T15:31:29.018Z,23.65
2022-10-18T15:34:09.513Z,23.49
2022-10-18T15:36:37.083Z,22.79
2022-10-18T15:39:25.278Z,23.45
2022-10-18T15:41:57.241Z,23.34
2022-10-18T15:44:23.777Z,23.44
2022-10-18T15:46:53.170Z,23.08
2022-10-18T15:49:44.603Z,22.97
2022-10-18T15:52:33.824Z,22.80
2022-10-18T15:55:31.235Z,23.43
2022-10-18T15:58:13.478Z,23.55
2022-10-18T16:00:40.035Z,23.27
2022-10-18T16:03:09.009Z,22.91
2022-10-18T16:05:37.551Z,22.59
2022-10-18T16:08:04.211Z,22.50
2022-10-18T16:10:30.749Z,22.40
2022-10-18T16:12:57.300Z,22.45
2022-10-18T16:15:23.862Z,22.39
2022-10-18T16:17:50.420Z,22.15
2022-10-18T16:20:24.970Z,22.18
2022-10-18T16:22:51.508Z,22.11
2022-10-18T16:25:18.132Z,22.02
2022-10-18T16:27:44.735Z,21.99
2022-10-18T16:30:18.371Z,21.67
2022-10-18T16:32:46.145Z,21.79
2022-10-18T16:35:13.373Z,21.78
2022-10-18T16:37:40.202Z,21.32
2022-10-18T16:40:24.069Z,21.66
2022-10-18T16:42:50.635Z,21.77
2022-10-18T16:45:17.356Z,21.83
2022-10-18T16:47:44.588Z,21.54
2022-10-18T16:50:15.371Z,21.11
2022-10-18T16:52:42.811Z,21.42
2022-10-18T16:55:16.294Z,21.37
2022-10-18T16:57:43.220Z,21.39
2022-10-18T17:00:22.815Z,21.04
2022-10-18T17:02:49.964Z,21.14
2022-10-18T17:05:17.481Z,21.26
2022-10-18T17:07:44.211Z,21.30
2022-10-18T17:10:20.883Z,21.32
2022-10-18T17:12:47.477Z,20.76
2022-10-18T17:15:14.055Z,20.93
2022-10-18T17:17:40.617Z,20.71
2022-10-18T17:20:08.766Z,21.02
2022-10-18T17:22:35.494Z,21.20
2022-10-18T17:25:02.088Z,21.12
2022-10-18T17:27:28.616Z,20.95
2022-10-18T17:29:55.455Z,20.48
2022-10-18T17:32:22.138Z,20.24
2022-10-18T17:34:48.691Z,20.59
2022-10-18T17:37:15.277Z,20.45
2022-10-18T17:39:41.815Z,20.71
2022-10-18T17:42:08.432Z,20.23
2022-10-18T17:44:35.053Z,20.34
2022-10-18T17:47:01.583Z,20.21
2022-10-18T17:49:28.258Z,20.30
2022-10-18T17:51:55.380Z,20.70
2022-10-18T17:54:21.951Z,20.27
2022-10-18T17:56:52.322Z,20.59
2022-10-18T17:59:21.092Z,20.41
2022-10-18T18:04:19.393Z,20.64
2022-10-18T18:06:48.046Z,20.54
2022-10-18T18:09:16.582Z,20.41
2022-10-18T18:11:48.414Z,20.57
2022-10-18T18:14:16.119Z,20.56
2022-10-18T18:16:45.392Z,20.56
2022-10-18T18:19:12.980Z,20.64
2022-10-18T18:21:41.479Z,20.49
2022-10-18T18:24:10.051Z,20.53
2022-10-18T18:26:38.481Z,20.56
2022-10-18T18:29:05.153Z,20.49
2022-10-18T18:31:36.901Z,20.30
2022-10-18T18:34:06.739Z,20.10
2022-10-18T18:36:33.486Z,19.97
2022-10-18T18:39:00.119Z,20.02
2022-10-18T18:41:28.127Z,19.84
2022-10-18T18:44:00.578Z,19.85
2022-10-18T18:46:32.986Z,19.73
2022-10-18T18:49:00.132Z,19.74
2022-10-18T18:51:26.691Z,19.79
2022-10-18T18:53:53.301Z,19.68
2022-10-18T18:56:22.728Z,19.82
2022-10-18T18:58:49.929Z,19.62
2022-10-18T19:01:25.220Z,19.49
2022-10-18T19:03:54.007Z,19.31
2022-10-18T19:06:26.616Z,19.40
2022-10-18T19:08:54.544Z,19.36
2022-10-18T19:11:22.619Z,19.41
2022-10-18T19:13:49.672Z,19.37
2022-10-18T19:16:20.608Z,19.24
2022-10-18T19:19:15.166Z,19.24
2022-10-18T19:21:47.914Z,19.34
2022-10-18T19:24:15.165Z,19.18
2022-10-18T19:26:48.931Z,19.19
2022-10-18T19:29:18.831Z,19.13
2022-10-18T19:31:45.750Z,19.27
2022-10-18T19:34:14.127Z,19.71
2022-10-18T19:36:42.405Z,19.13
2022-10-18T19:39:13.639Z,19.65
2022-10-18T19:41:40.314Z,19.47
2022-10-18T19:44:06.945Z,19.71
2022-10-18T19:46:33.519Z,19.46
2022-10-18T19:49:00.104Z,19.58
2022-10-18T19:51:28.260Z,19.05
2022-10-18T19:53:56.664Z,19.08
2022-10-18T19:56:24.829Z,18.83
2022-10-18T19:58:51.839Z,18.76
2022-10-18T20:01:19.515Z,18.89
2022-10-18T20:03:47.268Z,18.86
2022-10-18T20:06:14.112Z,18.79
2022-10-18T20:11:18.065Z,18.51
2022-10-18T20:13:45.054Z,18.77
2022-10-18T20:16:14.286Z,18.73
2022-10-18T20:18:43.161Z,18.88
2022-10-18T20:21:11.786Z,19.02
2022-10-18T20:23:40.710Z,18.69
2022-10-18T20:26:14.445Z,18.41
2022-10-18T20:28:43.739Z,18.13
2022-10-18T20:31:17.698Z,18.30
2022-10-18T20:33:48.110Z,18.38
2022-10-18T20:36:17.186Z,18.51
2022-10-18T20:38:46.694Z,18.26
2022-10-18T20:41:14.946Z,18.89
2022-10-18T20:43:42.170Z,18.36
2022-10-18T20:46:09.674Z,18.52
2022-10-18T20:48:36.848Z,18.54
2022-10-18T20:51:09.074Z,18.59
2022-10-18T20:53:39.261Z,18.03
2022-10-18T20:56:08.649Z,18.07
2022-10-18T20:58:36.387Z,18.27
2022-10-18T21:01:11.235Z,18.07
2022-10-18T21:03:39.957Z,18.14
2022-10-18T21:06:25.019Z,18.27
2022-10-18T21:08:57.040Z,18.04
2022-10-18T21:11:24.680Z,18.01
2022-10-18T21:13:52.887Z,17.73
2022-10-18T21:16:19.883Z,17.80
2022-10-18T21:18:46.914Z,17.63
2022-10-18T21:21:18.796Z,17.79
2022-10-18T21:23:45.795Z,17.48
2022-10-18T21:26:21.242Z,17.96
2022-10-18T21:28:50.686Z,18.10
2022-10-18T21:31:22.584Z,17.56
2022-10-18T21:33:58.115Z,17.96
2022-10-18T21:36:26.386Z,17.43
2022-10-18T21:38:53.456Z,17.92
2022-10-18T21:41:21.675Z,17.77
2022-10-18T21:43:51.228Z,17.46
2022-10-18T21:46:18.912Z,17.41
2022-10-18T21:48:51.111Z,17.72
2022-10-18T21:51:19.947Z,17.87
2022-10-18T21:53:48.393Z,17.97
2022-10-18T21:56:20.334Z,17.95
2022-10-18T21:58:47.454Z,17.95
2022-10-18T22:01:18.441Z,17.83
2022-10-18T22:03:47.770Z,17.36
2022-10-18T22:06:16.299Z,17.44
2022-10-18T22:08:57.318Z,17.56
2022-10-18T22:11:27.759Z,17.72
2022-10-18T22:13:55.333Z,17.99
2022-10-18T22:16:22.118Z,17.51
2022-10-18T22:18:50.398Z,17.64
2022-10-18T22:21:19.336Z,17.71
2022-10-18T22:23:51.265Z,17.28
2022-10-18T22:26:26.902Z,17.08
2022-10-18T22:28:59.113Z,17.20
2022-10-18T22:31:29.846Z,17.62
2022-10-18T22:34:01.772Z,17.82
2022-10-18T22:36:28.419Z,17.95
2022-10-18T22:38:55.309Z,17.93
2022-10-18T22:41:21.955Z,17.44
2022-10-18T22:43:50.959Z,17.03
2022-10-18T22:46:17.763Z,17.28
2022-10-18T22:48:45.090Z,17.71
2022-10-18T22:51:12.688Z,17.12
2022-10-18T22:53:40.560Z,17.15
2022-10-18T22:56:09.774Z,17.52
2022-10-18T22:58:36.358Z,17.66
2022-10-18T23:01:05.316Z,17.60
2022-10-18T23:03:32.275Z,17.45
2022-10-18T23:05:59.310Z,17.52
2022-10-18T23:08:26.385Z,17.24
2022-10-18T23:10:55.838Z,17.33
2022-10-18T23:13:24.212Z,17.14
2022-10-18T23:15:53.587Z,17.43
2022-10-18T23:18:20.112Z,17.50
2022-10-18T23:20:46.688Z,17.36
2022-10-18T23:23:13.700Z,17.31
2022-10-18T23:25:40.530Z,17.28
2022-10-18T23:28:07.163Z,16.72
2022-10-18T23:30:34.216Z,16.56
2022-10-18T23:33:00.968Z,16.86
2022-10-18T23:35:29.314Z,17.12
2022-10-18T23:37:55.876Z,17.05
2022-10-18T23:40:22.521Z,16.89
2022-10-18T23:42:49.113Z,17.13
2022-10-18T23:45:15.704Z,17.21
2022-10-18T23:47:42.227Z,16.95
2022-10-18T23:50:09.441Z,16.41
2022-10-18T23:52:35.954Z,16.23
2022-10-18T23:55:02.515Z,16.77
2022-10-18T23:57:29.212Z,16.98
2022-10-18T23:59:55.864Z,16.96
